createdAt,value
2023-03-24T00:01:31.883Z,99480.66
2023-03-24T00:06:34.794Z,99481.09
2023-03-24T00:11:36.737Z,99471.22
2023-03-24T00:16:38.398Z,99469.91
2023-03-24T00:21:39.094Z,99457.03
2023-03-24T00:26:42.265Z,99452.78
2023-03-24T00:31:43.235Z,99451.34
2023-03-24T00:36:43.996Z,99451.41
2023-03-24T00:41:46.470Z,99435.66
2023-03-24T00:46:56.366Z,99439.00
2023-03-24T00:51:58.263Z,99424.94
2023-03-24T00:57:03.196Z,99426.19
2023-03-24T01:02:04.011Z,99425.13
2023-03-24T01:07:05.654Z,99413.06
2023-03-24T01:12:08.621Z,99412.28
2023-03-24T01:17:09.943Z,99400.22
2023-03-24T01:22:10.565Z,99404.81
2023-03-24T01:27:13.332Z,99408.53
2023-03-24T01:32:14.352Z,99391.69
2023-03-24T01:37:15.075Z,99396.31
2023-03-24T01:42:19.890Z,99384.41
2023-03-24T01:47:20.622Z,99381.03
2023-03-24T01:52:25.698Z,99375.41
2023-03-24T01:57:30.914Z,99366.09
2023-03-24T02:02:36.439Z,99373.00
2023-03-24T02:07:42.284Z,99366.72
2023-03-24T02:12:45.205Z,99368.38
2023-03-24T02:17:58.067Z,99366.28
2023-03-24T02:23:37.511Z,99373.03
2023-03-24T02:28:48.539Z,99361.69
2023-03-24T02:34:26.235Z,99362.88
2023-03-24T02:39:47.919Z,99357.31
2023-03-24T02:44:56.864Z,99340.78
2023-03-24T02:50:02.174Z,99342.28
2023-03-24T02:55:10.908Z,99337.06
2023-03-24T03:00:16.812Z,99329.09
2023-03-24T03:05:52.166Z,99329.91
2023-03-24T03:10:56.778Z,99326.50
2023-03-24T03:16:01.692Z,99329.69
2023-03-24T03:21:09.885Z,99322.25
2023-03-24T03:26:16.591Z,99326.81
2023-03-24T03:31:23.730Z,99333.03
2023-03-24T03:36:29.534Z,99321.00
2023-03-24T03:41:32.561Z,99308.38
2023-03-24T03:46:33.717Z,99298.00
2023-03-24T03:51:35.415Z,99285.09
2023-03-24T03:56:39.243Z,99287.88
2023-03-24T04:01:56.275Z,99298.66
2023-03-24T04:07:16.572Z,99279.75
2023-03-24T04:12:49.825Z,99290.44
2023-03-24T04:18:32.096Z,99275.75
2023-03-24T04:23:49.896Z,99287.66
2023-03-24T04:29:01.245Z,99273.63
2023-03-24T04:34:05.250Z,99278.84
2023-03-24T04:39:07.039Z,99276.06
2023-03-24T04:44:17.633Z,99275.41
2023-03-24T04:49:38.937Z,99273.25
2023-03-24T04:54:39.635Z,99256.59
2023-03-24T04:59:43.116Z,99242.56
2023-03-24T05:04:45.013Z,99247.69
2023-03-24T05:10:12.570Z,99237.41
2023-03-24T05:15:19.951Z,99238.31
2023-03-24T05:20:25.739Z,99225.63
2023-03-24T05:25:26.396Z,99224.97
2023-03-24T05:30:28.482Z,99224.19
2023-03-24T05:35:37.849Z,99216.63
2023-03-24T05:40:38.737Z,99206.84
2023-03-24T05:45:47.535Z,99194.16
2023-03-24T05:50:58.597Z,99189.63
2023-03-24T05:56:00.728Z,99180.28
2023-03-24T06:01:33.468Z,99177.41
2023-03-24T06:06:48.264Z,99179.38
2023-03-24T06:11:53.056Z,99164.34
2023-03-24T06:16:59.200Z,99158.06
2023-03-24T06:22:02.894Z,99157.34
2023-03-24T06:27:09.029Z,99162.50
2023-03-24T06:32:11.767Z,99153.63
2023-03-24T06:37:16.549Z,99145.22
2023-03-24T06:42:18.574Z,99144.28
2023-03-24T06:47:21.110Z,99136.03
2023-03-24T06:52:22.193Z,99147.63
2023-03-24T06:57:22.984Z,99147.19
2023-03-24T07:02:43.416Z,99145.34
2023-03-24T07:13:23.083Z,99145.72
2023-03-24T07:18:28.622Z,99142.97
2023-03-24T07:23:34.715Z,99139.00
2023-03-24T07:28:45.286Z,99137.63
2023-03-24T07:33:49.056Z,99142.53
2023-03-24T07:38:49.742Z,99144.13
2023-03-24T07:43:58.094Z,99137.31
2023-03-24T07:49:08.677Z,99122.69
2023-03-24T07:54:18.329Z,99134.63
2023-03-24T07:59:22.214Z,99135.28
2023-03-24T08:04:24.347Z,99131.69
2023-03-24T08:09:34.061Z,99128.34
2023-03-24T08:14:35.296Z,99128.28
2023-03-24T08:19:45.388Z,99131.47
2023-03-24T08:24:52.988Z,99129.44
2023-03-24T08:29:53.637Z,99119.75
2023-03-24T08:34:55.662Z,99113.28
2023-03-24T08:39:58.792Z,99121.56
2023-03-24T08:45:00.600Z,99123.13
2023-03-24T08:50:02.586Z,99113.72
2023-03-24T08:55:03.924Z,99118.72
2023-03-24T09:00:12.045Z,99113.47
2023-03-24T09:05:17.300Z,99111.19
2023-03-24T09:10:18.722Z,99110.09
2023-03-24T09:15:19.675Z,99107.41
2023-03-24T09:20:21.826Z,99122.06
2023-03-24T09:25:24.816Z,99110.50
2023-03-24T09:30:26.066Z,99106.31
2023-03-24T09:35:29.012Z,99106.31
2023-03-24T09:40:32.285Z,99108.13
2023-03-24T09:45:38.243Z,99112.78
2023-03-24T09:50:44.414Z,99110.03
2023-03-24T09:55:46.185Z,99109.22
2023-03-24T10:00:47.684Z,99116.34
2023-03-24T10:05:55.404Z,99117.19
2023-03-24T10:11:03.018Z,99099.88
2023-03-24T10:16:11.421Z,99108.66
2023-03-24T10:21:20.897Z,99112.38
2023-03-24T10:26:32.920Z,99100.41
2023-03-24T10:31:36.028Z,99084.28
2023-03-24T10:36:39.372Z,99099.38
2023-03-24T10:41:43.825Z,99099.16
2023-03-24T10:46:49.076Z,99122.94
2023-03-24T10:51:52.521Z,99101.66
2023-03-24T10:57:02.621Z,99107.59
2023-03-24T11:02:16.913Z,99107.28
2023-03-24T11:07:21.591Z,99105.84
2023-03-24T11:12:24.345Z,99115.31
2023-03-24T11:17:28.306Z,99114.75
2023-03-24T11:22:31.325Z,99135.28
2023-03-24T11:27:32.567Z,99143.81
2023-03-24T11:32:33.538Z,99141.84
2023-03-24T11:37:37.787Z,99133.13
2023-03-24T11:42:44.137Z,99133.75
2023-03-24T11:47:46.716Z,99142.38
2023-03-24T11:52:54.125Z,99146.75
2023-03-24T11:58:01.090Z,99134.13
2023-03-24T12:03:38.084Z,99122.56
2023-03-24T12:08:52.872Z,99126.47
2023-03-24T12:13:54.005Z,99102.00
2023-03-24T12:19:12.062Z,99094.38
2023-03-24T12:24:27.602Z,99090.22
2023-03-24T12:29:52.013Z,99090.59
2023-03-24T12:35:19.123Z,99089.06
2023-03-24T12:40:45.811Z,99100.81
2023-03-24T12:45:52.655Z,99087.16
2023-03-24T12:51:06.942Z,99091.13
2023-03-24T12:56:14.189Z,99082.56
2023-03-24T13:01:24.755Z,99087.88
2023-03-24T13:06:32.414Z,99077.03
2023-03-24T13:11:44.422Z,99080.88
2023-03-24T13:16:48.630Z,99082.00
2023-03-24T13:21:51.807Z,99070.91
2023-03-24T13:27:03.526Z,99082.97
2023-03-24T13:32:10.480Z,99071.78
2023-03-24T13:37:15.119Z,99069.78
2023-03-24T13:42:31.749Z,99069.47
2023-03-24T13:47:51.363Z,99047.44
2023-03-24T13:52:52.328Z,99050.53
2023-03-24T13:57:57.812Z,99044.25
2023-03-24T14:03:15.434Z,99125.78
2023-03-24T14:08:19.187Z,99244.31
2023-03-24T14:13:47.893Z,99235.56
2023-03-24T14:18:49.329Z,99256.00
2023-03-24T14:23:52.593Z,99267.16
2023-03-24T14:28:56.360Z,99268.44
2023-03-24T14:34:05.872Z,99287.13
2023-03-24T14:39:26.319Z,99272.13
2023-03-24T14:44:57.188Z,99278.44
2023-03-24T14:50:03.945Z,99275.84
2023-03-24T14:55:07.761Z,99275.72
2023-03-24T15:00:19.657Z,99285.78
2023-03-24T15:05:24.957Z,99294.69
2023-03-24T15:10:25.760Z,99290.31
2023-03-24T15:15:31.663Z,99285.13
2023-03-24T15:20:35.848Z,99274.53
2023-03-24T15:25:41.972Z,99262.16
2023-03-24T15:30:50.528Z,99264.25
2023-03-24T15:35:57.103Z,99276.16
2023-03-24T15:41:01.028Z,99237.13
2023-03-24T15:46:12.450Z,99235.97
2023-03-24T15:51:17.209Z,99188.13
2023-03-24T15:56:21.726Z,99199.16
2023-03-24T16:01:31.076Z,99205.69
2023-03-24T16:06:35.248Z,99215.22
2023-03-24T16:11:35.996Z,99200.53
2023-03-24T16:16:39.541Z,99204.31
2023-03-24T16:21:40.481Z,99197.56
2023-03-24T16:26:41.134Z,99212.00
2023-03-24T16:31:44.175Z,99221.28
2023-03-24T16:36:44.803Z,99207.13
2023-03-24T16:41:45.902Z,99223.22
2023-03-24T16:46:49.260Z,99211.94
2023-03-24T16:51:50.123Z,99223.53
2023-03-24T16:56:50.932Z,99210.91
2023-03-24T17:01:53.682Z,99191.13
2023-03-24T17:06:54.974Z,99199.63
2023-03-24T17:11:58.430Z,99215.91
2023-03-24T17:17:02.857Z,99215.97
2023-03-24T17:22:07.050Z,99232.19
2023-03-24T17:27:11.659Z,99237.63
2023-03-24T17:32:13.709Z,99236.66
2023-03-24T17:37:14.351Z,99247.09
2023-03-24T17:42:14.975Z,99237.56
2023-03-24T17:47:17.141Z,99238.97
2023-03-24T17:52:17.853Z,99236.91
2023-03-24T17:57:18.911Z,99247.47
2023-03-24T18:02:20.857Z,99249.41
2023-03-24T18:07:23.036Z,99259.03
2023-03-24T18:12:24.685Z,99273.03
2023-03-24T18:17:26.707Z,99271.06
2023-03-24T18:22:27.711Z,99266.75
2023-03-24T18:27:28.441Z,99274.66
2023-03-24T18:32:33.017Z,99272.41
2023-03-24T18:37:33.737Z,99277.53
2023-03-24T18:42:34.452Z,99279.25
2023-03-24T18:47:36.566Z,99286.00
2023-03-24T18:52:37.276Z,99290.31
2023-03-24T18:57:37.947Z,99281.66
2023-03-24T19:02:40.544Z,99290.88
2023-03-24T19:07:41.283Z,99295.59
2023-03-24T19:12:41.923Z,99309.53
2023-03-24T19:17:43.890Z,99311.41
2023-03-24T19:22:44.563Z,99312.59
2023-03-24T19:27:45.503Z,99309.31
2023-03-24T19:32:47.694Z,99312.03
2023-03-24T19:37:48.435Z,99315.47
2023-03-24T19:42:49.263Z,99311.81
2023-03-24T19:47:51.289Z,99321.50
2023-03-24T19:52:52.048Z,99310.91
2023-03-24T19:57:52.740Z,99318.09
2023-03-24T20:02:54.779Z,99318.84
2023-03-24T20:07:58.482Z,99308.25
2023-03-24T20:13:00.457Z,99314.06
2023-03-24T20:18:02.746Z,99313.41
2023-03-24T20:23:03.439Z,99314.53
2023-03-24T20:28:04.176Z,99311.78
2023-03-24T20:33:06.450Z,99313.63
2023-03-24T20:38:07.138Z,99313.81
2023-03-24T20:43:07.787Z,99323.06
2023-03-24T20:48:09.734Z,99330.00
2023-03-24T20:53:10.375Z,99323.25
2023-03-24T20:58:11.288Z,99304.50
2023-03-24T21:03:13.347Z,99311.41
2023-03-24T21:08:14.064Z,99321.16
2023-03-24T21:13:16.761Z,99329.72
2023-03-24T21:18:19.298Z,99330.28
2023-03-24T21:23:21.558Z,99332.06
2023-03-24T21:28:22.202Z,99329.78
2023-03-24T21:33:24.288Z,99322.66
2023-03-24T21:38:25.443Z,99307.09
2023-03-24T21:43:27.090Z,99310.50
2023-03-24T21:48:29.206Z,99313.88
2023-03-24T21:53:29.918Z,99325.16
2023-03-24T21:58:31.523Z,99334.47
2023-03-24T22:03:34.568Z,99352.63
2023-03-24T22:08:35.307Z,99352.34
2023-03-24T22:13:37.100Z,99355.09
2023-03-24T22:18:39.082Z,99338.69
2023-03-24T22:23:42.392Z,99334.31
2023-03-24T22:28:43.451Z,99325.91
2023-03-24T22:33:47.518Z,99331.25
2023-03-24T22:38:48.205Z,99326.19
2023-03-24T22:43:49.264Z,99326.44
2023-03-24T22:48:51.582Z,99310.69
2023-03-24T22:53:52.477Z,99318.13
2023-03-24T22:58:53.206Z,99321.53
2023-03-24T23:03:55.376Z,99311.00
2023-03-24T23:08:56.958Z,99311.78
2023-03-24T23:14:04.334Z,99319.00
2023-03-24T23:19:08.498Z,99323.72
2023-03-24T23:24:09.402Z,99334.16
2023-03-24T23:29:10.172Z,99321.13
2023-03-24T23:34:12.867Z,99320.59
2023-03-24T23:39:14.536Z,99320.88
2023-03-24T23:44:19.570Z,99328.00
2023-03-24T23:49:21.605Z,99314.53
2023-03-24T23:54:22.293Z,99333.31
2023-03-24T23:59:22.931Z,99322.22
